Aérodrome :
LOGIN :

S'inscrire | Disclaimer

   EN    FR    IT 

 










Légende :    VFR   VFR Marginal   IFR   IFR Intensif   IFR Très Intensif
Visi : 
Plafond : 
>= 8 km
>= 3000ft
5 à 8 km
1000 à 3000 ft
1500m à 5 km
500 à 1000 ft
800 à 1500m
200 à 500 ft
< 800m
< 200 ft
Symboles :   Orages  Brouillard  Fortes neiges  Fortes précipitations  Vent > 20 kt
SIGMETs :   Divers  Orages  Givrage  Turbulence  Onde Orograph.  Cendres Volcan.






- Altitude de l'aérodrome : 646 ft
- Code IATA : VNO


EYVI - Vilnius int.

DERNIER METAR :
  • 300720Z 01011KT CAVOK M02/M10 Q1017 R01/1///95 NOSIG

METARs EXPIRÉS :
  • 300650Z 01012KT CAVOK M02/M11 Q1017 R01/5/0295 NOSIG
  • 300620Z 36012KT CAVOK M03/M11 Q1017 R01/5/0295 NOSIG
  • 300550Z 36012KT CAVOK M04/M11 Q1017 R01/5/0295 NOSIG
  • 300520Z 36012KT CAVOK M04/M12 Q1017 R01/5/0295 NOSIG
  • 300450Z 36011KT CAVOK M05/M12 Q1016 R01/5/0295 NOSIG

TAF TAF EYVI
Valide du 30 à 06h jusqu'au 31 à 06h UTC


300502Z 3006/3106 36012G22KT 9000 SCT035
BECMG 3018/3019 VRB02KT NSC



MET'MAP, la Météo Aéronautique d'un coup d'oeil ! - Copyright ORBIFLY Décembre 2007 - Disclaimer

ORBIFLY MET'MAP TEAM :

Programmation & Développement : Alexandra Zaïnal
Sur une idée originale de : Baudouin d'Aumeries
Assistance à la programmation : Marc-Olivier Méhu
Soutien technique & logistique : Manuel Goepfert

Contact : metmap@orbifly.com




SOURCES & CREDITS :

   NOAA